Time;durP1;ratioP1;P1;durP2;ratioP2;P2;SDS_P1;SDS_P2;PMS_P1;PMS_P2;Temp;Humidity;BMP_temperature;BMP_pressure;BME280_temperature;BME280_humidity;BME280_pressure;Samples;Min_cycle;Max_cycle;Signal;HPM_P1;HPM_P2
2023/04/08 00:04:49;;;;;;;5.50;3.53;;;5.60;99.90;;;;;;12475292;28;20077;-82
2023/04/08 00:10:51;;;;;;;5.95;3.63;;;5.60;99.90;;;;;;12467249;28;20163;-82
2023/04/08 00:16:53;;;;;;;8.45;3.92;;;5.60;99.90;;;;;;12472165;28;20053;-82
2023/04/08 00:22:55;;;;;;;7.20;3.25;;;5.70;99.90;;;;;;12481021;28;20045;-81
2023/04/08 00:28:57;;;;;;;6.32;3.38;;;5.80;99.90;;;;;;12486648;28;20045;-81
2023/04/08 00:34:59;;;;;;;6.90;3.17;;;5.90;99.90;;;;;;12470975;28;20136;-81
2023/04/08 00:41:01;;;;;;;5.95;3.55;;;6.00;99.90;;;;;;12477202;28;20053;-82
2023/04/08 00:47:04;;;;;;;5.47;3.65;;;5.80;99.90;;;;;;12493663;28;20120;-82
2023/04/08 00:53:05;;;;;;;7.10;4.20;;;5.70;99.90;;;;;;12481461;28;20041;-82
2023/04/08 00:59:07;;;;;;;6.18;4.03;;;5.80;99.90;;;;;;12487703;28;20042;-82
2023/04/08 01:05:19;;;;;;;8.55;4.60;;;5.80;99.90;;;;;;12470106;28;20225;-83
2023/04/08 01:11:21;;;;;;;8.23;4.70;;;5.80;99.90;;;;;;12462258;28;20045;-82
2023/04/08 01:17:23;;;;;;;9.63;4.80;;;6.00;99.90;;;;;;12470057;28;20123;-82
2023/04/08 01:23:36;;;;;;;8.82;4.53;;;5.90;99.90;;;;;;12481214;28;20109;-82
2023/04/08 01:29:38;;;;;;;10.35;4.57;;;5.90;99.90;;;;;;12473390;28;20061;-82
2023/04/08 01:35:40;;;;;;;9.80;4.97;;;5.90;99.90;;;;;;12465676;28;20095;-82
2023/04/08 01:41:43;;;;;;;10.40;6.00;;;5.90;99.90;;;;;;12453474;28;20141;-82
2023/04/08 01:47:47;;;;;;;9.05;5.82;;;5.90;99.90;;;;;;12480380;28;20049;-83
2023/04/08 01:53:49;;;;;;;8.93;5.10;;;5.90;99.90;;;;;;12465025;28;20061;-83
2023/04/08 01:59:52;;;;;;;8.07;5.50;;;5.90;99.90;;;;;;12464347;28;21279;-82
2023/04/08 02:05:54;;;;;;;8.45;5.18;;;5.80;99.90;;;;;;12471302;28;20060;-82
2023/04/08 02:11:57;;;;;;;7.32;5.00;;;5.90;99.90;;;;;;12474129;28;20497;-82
2023/04/08 02:18:10;;;;;;;8.15;5.60;;;5.90;99.90;;;;;;12489588;28;20057;-82
2023/04/08 02:24:14;;;;;;;10.07;6.25;;;5.90;99.90;;;;;;12472163;28;20041;-84
2023/04/08 02:30:17;;;;;;;10.73;6.45;;;5.80;99.90;;;;;;12477212;28;20061;-82
2023/04/08 02:36:19;;;;;;;9.90;6.75;;;5.80;99.90;;;;;;12453747;28;20150;-82
2023/04/08 02:42:21;;;;;;;11.48;6.82;;;5.80;99.90;;;;;;12492021;28;20045;-82
2023/04/08 02:48:23;;;;;;;9.88;6.78;;;5.80;99.90;;;;;;12490123;28;20447;-82
2023/04/08 02:54:25;;;;;;;11.23;6.90;;;5.80;99.90;;;;;;12481280;28;20053;-83
2023/04/08 03:00:27;;;;;;;11.70;6.53;;;5.80;99.90;;;;;;12479976;28;20045;-83
2023/04/08 03:06:28;;;;;;;10.95;6.57;;;5.70;99.90;;;;;;12480761;28;20096;-83
2023/04/08 03:12:30;;;;;;;8.27;6.30;;;5.80;99.90;;;;;;12477625;28;20100;-82
2023/04/08 03:18:32;;;;;;;10.93;6.72;;;5.90;99.90;;;;;;12483787;28;20169;-82
2023/04/08 03:24:35;;;;;;;9.15;6.75;;;5.80;99.90;;;;;;12477064;28;20041;-83
2023/04/08 03:30:37;;;;;;;9.30;6.03;;;5.70;99.90;;;;;;12465084;28;20131;-82
2023/04/08 03:36:39;;;;;;;8.60;5.60;;;5.60;99.90;;;;;;12464191;28;20077;-83
2023/04/08 03:42:41;;;;;;;9.07;6.22;;;5.60;99.90;;;;;;12465943;28;20470;-82
2023/04/08 03:48:42;;;;;;;10.93;5.93;;;5.50;99.90;;;;;;12490260;28;20099;-82
2023/04/08 03:54:44;;;;;;;8.23;5.22;;;5.50;99.90;;;;;;12500383;28;20127;-82
2023/04/08 04:00:46;;;;;;;9.73;5.78;;;5.50;99.90;;;;;;12486700;28;20049;-82
2023/04/08 04:06:48;;;;;;;6.90;5.53;;;5.50;99.90;;;;;;12487216;28;20128;-82
2023/04/08 04:12:50;;;;;;;7.85;4.97;;;5.70;99.90;;;;;;12474325;28;20053;-83
2023/04/08 04:18:52;;;;;;;8.82;5.43;;;5.70;99.90;;;;;;12517531;28;20056;-82
2023/04/08 04:24:55;;;;;;;9.73;5.30;;;5.80;99.90;;;;;;12489572;28;20092;-83
2023/04/08 04:30:57;;;;;;;10.18;5.68;;;6.00;99.90;;;;;;12473185;28;20041;-82
2023/04/08 04:36:59;;;;;;;7.80;5.18;;;5.90;99.90;;;;;;12482637;28;20053;-82
2023/04/08 04:43:01;;;;;;;9.18;5.38;;;5.80;99.90;;;;;;12489241;28;20077;-82
2023/04/08 04:49:03;;;;;;;9.45;5.60;;;5.60;99.90;;;;;;12484907;28;20042;-82
2023/04/08 04:55:05;;;;;;;12.13;5.95;;;5.50;99.90;;;;;;12489654;28;20140;-82
2023/04/08 05:01:07;;;;;;;10.65;5.47;;;5.50;99.90;;;;;;12494713;28;20080;-82
2023/04/08 05:07:09;;;;;;;8.52;5.43;;;5.50;99.90;;;;;;12486245;28;20191;-83
2023/04/08 05:13:11;;;;;;;9.35;5.28;;;5.70;99.90;;;;;;12496162;28;20041;-82
2023/04/08 05:19:13;;;;;;;7.90;5.28;;;5.60;99.90;;;;;;12492614;28;20050;-82
2023/04/08 05:25:15;;;;;;;9.65;5.63;;;5.70;99.90;;;;;;12471321;28;20122;-82
2023/04/08 05:31:20;;;;;;;10.38;6.35;;;5.60;99.90;;;;;;12486409;28;20517;-82
2023/04/08 05:37:22;;;;;;;13.98;6.93;;;5.50;99.90;;;;;;12494794;28;20080;-82
2023/04/08 05:43:24;;;;;;;10.77;7.07;;;5.50;99.90;;;;;;12479079;28;20045;-82
2023/04/08 05:49:26;;;;;;;12.80;7.07;;;5.60;99.90;;;;;;12484375;28;20053;-82
2023/04/08 05:55:28;;;;;;;12.27;7.72;;;5.50;99.90;;;;;;12492653;28;20467;-83
2023/04/08 06:01:30;;;;;;;11.82;7.90;;;5.50;99.90;;;;;;12485196;28;20045;-83
2023/04/08 06:07:33;;;;;;;14.25;8.35;;;5.60;99.90;;;;;;12493137;28;20104;-82
2023/04/08 06:13:36;;;;;;;13.15;7.97;;;5.60;99.90;;;;;;12495760;28;20057;-82
2023/04/08 06:19:38;;;;;;;11.05;7.53;;;5.70;99.90;;;;;;12498964;28;20545;-81
2023/04/08 06:25:40;;;;;;;12.40;8.10;;;5.60;99.90;;;;;;12474025;28;20144;-82
2023/04/08 06:31:42;;;;;;;13.27;8.52;;;5.70;99.90;;;;;;12497290;28;20052;-82
2023/04/08 06:37:45;;;;;;;13.00;8.30;;;5.70;99.90;;;;;;12489425;28;20068;-82
2023/04/08 06:43:47;;;;;;;12.48;8.52;;;5.80;99.90;;;;;;12470341;28;20095;-82
2023/04/08 06:49:48;;;;;;;15.60;9.30;;;5.90;99.90;;;;;;12461600;28;20050;-82
2023/04/08 06:55:50;;;;;;;15.15;8.70;;;6.00;99.90;;;;;;12483526;28;20038;-82
2023/04/08 07:01:52;;;;;;;17.58;9.57;;;5.90;99.90;;;;;;12460977;28;20314;-82
2023/04/08 07:07:55;;;;;;;16.98;9.45;;;6.00;99.90;;;;;;12475246;28;20068;-82
2023/04/08 07:13:57;;;;;;;18.80;10.48;;;6.20;99.90;;;;;;12478500;28;20088;-82
2023/04/08 07:19:59;;;;;;;18.80;9.77;;;6.00;99.90;;;;;;12463611;28;20103;-82
2023/04/08 07:26:04;;;;;;;16.58;10.10;;;6.10;99.90;;;;;;12457697;28;20574;-82
2023/04/08 07:32:06;;;;;;;18.90;11.32;;;6.10;99.90;;;;;;12462730;28;20057;-82
2023/04/08 07:38:10;;;;;;;19.70;10.27;;;6.30;99.90;;;;;;12478654;28;20049;-81
2023/04/08 07:44:15;;;;;;;21.03;10.97;;;6.40;99.90;;;;;;12490794;28;20053;-81
2023/04/08 07:50:17;;;;;;;20.05;10.68;;;6.30;99.90;;;;;;12474385;28;20046;-82
2023/04/08 07:56:21;;;;;;;20.20;11.25;;;6.30;99.90;;;;;;12504481;28;20135;-82
2023/04/08 08:02:23;;;;;;;22.27;12.68;;;6.30;99.90;;;;;;12476914;28;20050;-82
2023/04/08 08:08:25;;;;;;;23.73;13.07;;;6.40;99.90;;;;;;12488982;28;20510;-81
2023/04/08 08:14:28;;;;;;;20.00;11.23;;;7.00;99.90;;;;;;12483110;28;20525;-83
2023/04/08 08:20:30;;;;;;;19.42;11.70;;;7.50;99.90;;;;;;12477859;28;20412;-81
2023/04/08 08:26:38;;;;;;;22.02;11.63;;;7.60;99.90;;;;;;12487806;28;20042;-82
2023/04/08 08:32:40;;;;;;;21.10;11.38;;;7.50;99.90;;;;;;12475291;28;20057;-81
2023/04/08 08:38:42;;;;;;;17.17;10.27;;;7.40;99.90;;;;;;12482553;28;20111;-81
2023/04/08 08:44:44;;;;;;;18.92;10.80;;;7.30;99.90;;;;;;12479846;28;20046;-82
2023/04/08 08:50:46;;;;;;;19.17;11.35;;;7.40;99.90;;;;;;12470989;28;20617;-82
2023/04/08 08:56:48;;;;;;;17.38;10.57;;;7.20;99.90;;;;;;12485141;28;20072;-81
2023/04/08 09:02:50;;;;;;;19.77;11.00;;;7.70;99.90;;;;;;12491269;28;20502;-81
2023/04/08 09:08:52;;;;;;;17.85;10.52;;;8.00;99.90;;;;;;12487232;28;20053;-82
2023/04/08 09:15:07;;;;;;;19.30;10.73;;;7.80;99.90;;;;;;12484203;28;20184;-82
2023/04/08 09:21:11;;;;;;;19.10;11.05;;;7.60;99.90;;;;;;12471854;28;20046;-82
2023/04/08 09:27:13;;;;;;;22.38;11.00;;;7.80;99.90;;;;;;12494571;28;20124;-82
2023/04/08 09:33:15;;;;;;;19.50;11.05;;;8.00;99.90;;;;;;12487610;28;20129;-82
2023/04/08 09:39:17;;;;;;;19.27;11.07;;;8.10;99.90;;;;;;12479709;28;20193;-81
2023/04/08 09:45:20;;;;;;;18.85;10.98;;;8.20;99.90;;;;;;12480885;28;20046;-82
2023/04/08 09:51:24;;;;;;;21.52;11.88;;;8.00;99.90;;;;;;12472058;28;20042;-82
2023/04/08 09:57:44;;;;;;;19.13;11.80;;;7.70;99.90;;;;;;12481602;28;20132;-82
2023/04/08 10:03:53;;;;;;;19.90;11.45;;;7.60;99.90;;;;;;12478235;28;20128;-80
2023/04/08 10:09:57;;;;;;;22.55;12.88;;;8.00;99.90;;;;;;12488030;28;20061;-81
2023/04/08 10:16:29;;;;;;;21.83;11.60;;;7.80;99.90;;;;;;12480542;28;20140;-82
2023/04/08 10:22:34;;;;;;;18.75;11.15;;;8.00;99.90;;;;;;12478127;28;20042;-81
2023/04/08 10:28:35;;;;;;;22.00;13.18;;;8.00;99.90;;;;;;12477946;28;20046;-81
2023/04/08 10:34:51;;;;;;;20.88;12.10;;;7.80;99.90;;;;;;12474126;28;20042;-81
2023/04/08 10:40:54;;;;;;;22.63;12.50;;;8.00;99.90;;;;;;12478025;28;20515;-81
2023/04/08 10:46:55;;;;;;;20.55;12.23;;;8.20;99.90;;;;;;12480769;28;20179;-82
2023/04/08 10:52:57;;;;;;;23.40;12.90;;;8.20;99.90;;;;;;12476973;28;20406;-81
2023/04/08 10:58:59;;;;;;;20.45;12.77;;;8.20;99.90;;;;;;12463822;28;20038;-81
2023/04/08 11:05:02;;;;;;;19.17;12.10;;;8.20;99.90;;;;;;12461486;28;20046;-81
2023/04/08 11:11:09;;;;;;;17.83;11.35;;;8.40;99.90;;;;;;12469412;28;20044;-81
2023/04/08 11:17:15;;;;;;;20.23;12.55;;;8.60;99.90;;;;;;12478974;28;20052;-82
2023/04/08 11:23:17;;;;;;;21.73;12.18;;;8.40;99.90;;;;;;12459607;28;20076;-81
2023/04/08 11:29:20;;;;;;;25.23;12.75;;;8.50;99.90;;;;;;12488463;28;20183;-81
2023/04/08 11:35:22;;;;;;;22.70;13.02;;;8.30;99.90;;;;;;12470023;28;20399;-81
2023/04/08 11:41:36;;;;;;;21.70;13.77;;;8.50;99.90;;;;;;12468716;28;20096;-81
2023/04/08 11:47:38;;;;;;;;;;;8.80;99.90;;;;;;12480588;28;20095;-81
2023/04/08 11:53:40;;;;;;;18.98;12.68;;;9.40;99.90;;;;;;12464369;28;19922;-82
2023/04/08 11:59:42;;;;;;;20.58;11.73;;;9.40;99.90;;;;;;12479191;28;20112;-83
2023/04/08 12:05:43;;;;;;;18.50;11.43;;;9.30;99.90;;;;;;12474235;28;20144;-82
2023/04/08 12:11:45;;;;;;;20.77;11.48;;;9.10;99.90;;;;;;12462147;28;20692;-82
2023/04/08 12:17:47;;;;;;;20.05;11.45;;;8.90;99.90;;;;;;12445335;28;20060;-82
2023/04/08 12:23:52;;;;;;;19.88;11.35;;;8.80;99.90;;;;;;12471049;28;20052;-82
2023/04/08 12:29:54;;;;;;;;;;;8.70;99.90;;;;;;12461824;28;20061;-82
2023/04/08 12:35:59;;;;;;;16.50;11.20;;;9.00;99.90;;;;;;12473648;28;19922;-82
2023/04/08 12:42:02;;;;;;;17.13;11.27;;;9.20;99.90;;;;;;12454363;28;20049;-82
2023/04/08 12:48:03;;;;;;;20.35;12.02;;;9.20;99.90;;;;;;12473920;28;20057;-82
2023/04/08 12:54:06;;;;;;;19.70;13.27;;;9.30;99.90;;;;;;12472825;28;20038;-82
2023/04/08 13:00:10;;;;;;;19.52;11.43;;;9.50;99.90;;;;;;12476155;28;20498;-83
2023/04/08 13:06:12;;;;;;;17.42;10.80;;;9.40;99.90;;;;;;12469323;28;20129;-82
2023/04/08 13:12:15;;;;;;;17.23;11.10;;;9.20;99.90;;;;;;12480518;28;20046;-82
2023/04/08 13:18:16;;;;;;;18.30;11.43;;;8.90;99.90;;;;;;12478184;28;20053;-82
2023/04/08 13:24:18;;;;;;;15.95;10.48;;;8.90;99.90;;;;;;12482330;28;20665;-81
2023/04/08 13:30:20;;;;;;;22.15;12.77;;;9.20;99.90;;;;;;12474729;28;20056;-82
2023/04/08 13:36:27;;;;;;;21.98;12.55;;;8.80;99.90;;;;;;12488442;28;20740;-82
2023/04/08 13:42:33;;;;;;;23.05;13.55;;;8.80;99.90;;;;;;12494590;28;20065;-81
2023/04/08 13:48:34;;;;;;;21.67;12.82;;;9.30;99.90;;;;;;12482671;28;20071;-81
2023/04/08 13:54:36;;;;;;;19.77;12.38;;;9.30;99.90;;;;;;12484723;28;20115;-82
2023/04/08 14:00:38;;;;;;;21.02;12.43;;;9.00;99.90;;;;;;12485414;28;20042;-81
2023/04/08 14:06:40;;;;;;;20.08;12.15;;;8.80;99.90;;;;;;12484369;28;20121;-82
2023/04/08 14:12:42;;;;;;;21.83;13.18;;;8.90;99.90;;;;;;12469017;28;20100;-82
2023/04/08 14:18:45;;;;;;;21.95;13.70;;;8.80;99.90;;;;;;12469172;28;20056;-83
2023/04/08 14:24:47;;;;;;;22.10;13.43;;;8.80;99.90;;;;;;12488439;28;20343;-81
2023/04/08 14:30:49;;;;;;;21.88;13.65;;;8.90;99.90;;;;;;12481470;28;20138;-82
2023/04/08 14:36:51;;;;;;;20.17;13.30;;;8.80;99.90;;;;;;12524926;28;20490;-82
2023/04/08 14:42:53;;;;;;;22.70;14.07;;;8.90;99.90;;;;;;12516654;28;20045;-83
2023/04/08 14:48:55;;;;;;;21.83;13.52;;;8.80;99.90;;;;;;12526638;28;20049;-82
2023/04/08 14:54:56;;;;;;;22.48;14.35;;;8.80;99.90;;;;;;12515847;28;20050;-82
2023/04/08 15:00:58;;;;;;;20.15;13.02;;;9.00;99.90;;;;;;12533006;28;20069;-82
2023/04/08 15:07:01;;;;;;;19.90;12.52;;;9.10;99.90;;;;;;12531088;28;20076;-81
2023/04/08 15:13:03;;;;;;;20.25;12.73;;;9.40;99.90;;;;;;12483489;28;20049;-82
2023/04/08 15:19:05;;;;;;;21.00;12.52;;;9.50;99.90;;;;;;12473876;28;20097;-82
2023/04/08 15:25:08;;;;;;;20.92;12.80;;;9.70;99.90;;;;;;12475343;28;20124;-81
2023/04/08 15:31:10;;;;;;;21.23;13.85;;;9.30;99.90;;;;;;12471920;28;20105;-81
2023/04/08 15:37:13;;;;;;;19.10;12.60;;;9.30;99.90;;;;;;12482023;28;20071;-81
2023/04/08 15:43:15;;;;;;;17.58;11.93;;;9.30;99.90;;;;;;12467416;28;20056;-82
2023/04/08 15:49:17;;;;;;;22.08;13.68;;;9.30;99.90;;;;;;12470922;28;20132;-81
2023/04/08 15:55:19;;;;;;;21.38;12.25;;;9.00;99.90;;;;;;12482295;28;20045;-81
2023/04/08 16:01:21;;;;;;;19.55;11.85;;;8.90;99.90;;;;;;12489249;28;20041;-81
2023/04/08 16:07:23;;;;;;;20.60;12.63;;;8.80;99.90;;;;;;12476673;28;20045;-81
2023/04/08 16:13:27;;;;;;;19.42;12.50;;;8.70;99.90;;;;;;12488986;28;20045;-82
2023/04/08 16:19:29;;;;;;;20.25;13.60;;;8.70;99.90;;;;;;12472527;28;20054;-81
2023/04/08 16:25:31;;;;;;;22.75;13.07;;;8.70;99.90;;;;;;12485617;28;20041;-81
2023/04/08 16:31:33;;;;;;;21.75;13.80;;;8.70;99.90;;;;;;12496237;28;20476;-82
2023/04/08 16:37:35;;;;;;;20.30;12.98;;;8.60;99.90;;;;;;12467960;28;20053;-81
2023/04/08 16:43:37;;;;;;;20.77;12.43;;;8.50;99.90;;;;;;12483001;28;20530;-81
2023/04/08 16:49:39;;;;;;;17.50;11.60;;;8.40;99.90;;;;;;12475768;28;20133;-82
2023/04/08 16:55:41;;;;;;;16.35;11.35;;;8.40;99.90;;;;;;12485578;28;20079;-82
2023/04/08 17:01:43;;;;;;;20.48;11.68;;;8.40;99.90;;;;;;12478109;28;20493;-81
2023/04/08 17:07:45;;;;;;;23.65;14.27;;;8.40;99.90;;;;;;12476384;28;20050;-82
2023/04/08 17:13:47;;;;;;;22.25;14.48;;;8.30;99.90;;;;;;12465490;28;20041;-81
2023/04/08 17:19:49;;;;;;;25.65;14.50;;;8.30;99.90;;;;;;12484821;28;20643;-81
2023/04/08 17:25:52;;;;;;;27.02;15.80;;;8.20;99.90;;;;;;12474727;28;20384;-81
2023/04/08 17:31:54;;;;;;;26.13;16.15;;;8.10;99.90;;;;;;12464536;28;20046;-81
2023/04/08 17:37:56;;;;;;;30.83;19.48;;;8.10;99.90;;;;;;12476928;28;20042;-82
2023/04/08 17:43:58;;;;;;;27.95;16.88;;;8.10;99.90;;;;;;12474288;28;20062;-81
2023/04/08 17:50:00;;;;;;;28.70;18.30;;;8.00;99.90;;;;;;12471150;28;20069;-80
2023/04/08 17:56:02;;;;;;;32.05;18.90;;;7.90;99.90;;;;;;12494089;28;20058;-82
2023/04/08 18:02:04;;;;;;;33.70;20.67;;;8.00;99.90;;;;;;12481095;28;20053;-81
2023/04/08 18:08:06;;;;;;;40.90;25.27;;;8.00;99.90;;;;;;12487028;28;20053;-80
2023/04/08 18:14:08;;;;;;;37.00;24.05;;;7.90;99.90;;;;;;12495091;28;20508;-81
2023/04/08 18:20:10;;;;;;;48.60;28.15;;;7.90;99.90;;;;;;12474418;28;20046;-81
2023/04/08 18:26:12;;;;;;;48.42;28.52;;;7.80;99.90;;;;;;12472067;28;20131;-81
2023/04/08 18:32:15;;;;;;;41.25;24.00;;;7.80;99.90;;;;;;12491096;28;20121;-81
2023/04/08 18:38:17;;;;;;;47.78;27.75;;;7.90;99.90;;;;;;12487553;28;20095;-80
2023/04/08 18:44:19;;;;;;;63.47;36.40;;;7.90;99.90;;;;;;12483752;28;20042;-81
2023/04/08 18:50:21;;;;;;;49.92;27.77;;;7.80;99.90;;;;;;12479500;28;20518;-80
2023/04/08 18:56:23;;;;;;;48.13;27.65;;;7.80;99.90;;;;;;12491309;28;20461;-82
2023/04/08 19:02:25;;;;;;;62.05;33.50;;;7.80;99.90;;;;;;12473416;28;20053;-81
2023/04/08 19:08:28;;;;;;;41.95;25.00;;;7.70;99.90;;;;;;12484719;28;20061;-81
2023/04/08 19:14:29;;;;;;;128.00;63.95;;;7.70;99.90;;;;;;12482880;28;20080;-81
2023/04/08 19:20:32;;;;;;;63.00;34.55;;;7.70;99.90;;;;;;12478750;28;20049;-81
2023/04/08 19:26:35;;;;;;;41.28;22.50;;;7.80;99.90;;;;;;12478716;28;20048;-82
2023/04/08 19:32:37;;;;;;;32.38;20.02;;;7.80;99.90;;;;;;12477854;28;20052;-82
2023/04/08 19:38:39;;;;;;;33.47;19.80;;;7.70;99.90;;;;;;12507197;28;20057;-82
2023/04/08 19:44:41;;;;;;;30.65;18.35;;;7.70;99.90;;;;;;12487970;28;20043;-81
2023/04/08 19:50:43;;;;;;;27.88;17.02;;;7.60;99.90;;;;;;12482936;28;20042;-81
2023/04/08 19:56:44;;;;;;;35.78;20.98;;;7.60;99.90;;;;;;12463716;28;20045;-82
2023/04/08 20:02:46;;;;;;;26.40;16.23;;;7.60;99.90;;;;;;12477069;28;20042;-82
2023/04/08 20:08:51;;;;;;;25.88;15.95;;;7.60;99.90;;;;;;12475032;28;20054;-81
2023/04/08 20:14:53;;;;;;;24.00;14.98;;;7.50;99.90;;;;;;12469470;28;20176;-81
2023/04/08 20:20:55;;;;;;;46.47;24.23;;;7.50;99.90;;;;;;12488383;28;20144;-81
2023/04/08 20:26:58;;;;;;;121.20;47.40;;;7.30;99.90;;;;;;12485000;28;20462;-81
2023/04/08 20:33:00;;;;;;;76.43;34.90;;;7.10;99.90;;;;;;12485958;28;20054;-81
2023/04/08 20:39:03;;;;;;;71.22;34.80;;;6.90;99.90;;;;;;12473041;28;20049;-81
2023/04/08 20:45:06;;;;;;;82.05;42.33;;;6.80;99.90;;;;;;12493525;28;20421;-81
2023/04/08 20:51:08;;;;;;;55.80;29.88;;;6.60;99.90;;;;;;12473495;28;20525;-81
2023/04/08 20:57:10;;;;;;;70.20;36.92;;;6.50;99.90;;;;;;12492002;28;20042;-82
2023/04/08 21:03:12;;;;;;;74.60;38.65;;;6.50;99.90;;;;;;12475329;28;20442;-82
2023/04/08 21:09:15;;;;;;;53.03;26.38;;;6.40;99.90;;;;;;12488179;28;20045;-81
2023/04/08 21:15:17;;;;;;;26.85;14.98;;;6.40;99.90;;;;;;12476420;28;20501;-81
2023/04/08 21:21:19;;;;;;;29.13;15.68;;;6.40;99.90;;;;;;12470347;28;20136;-82
2023/04/08 21:27:21;;;;;;;27.08;14.75;;;6.20;99.90;;;;;;12479645;28;20173;-83
2023/04/08 21:33:23;;;;;;;24.25;13.70;;;6.00;99.90;;;;;;12475346;28;20054;-82
2023/04/08 21:39:25;;;;;;;26.17;15.48;;;6.00;99.90;;;;;;12480328;28;20053;-81
2023/04/08 21:45:27;;;;;;;28.45;15.75;;;5.90;99.90;;;;;;12488872;28;20089;-82
2023/04/08 21:51:29;;;;;;;36.65;19.27;;;5.80;99.90;;;;;;12494495;28;20053;-81
2023/04/08 21:57:31;;;;;;;41.20;21.58;;;5.50;99.90;;;;;;12469940;28;20103;-81
2023/04/08 22:03:33;;;;;;;41.45;21.75;;;5.50;99.90;;;;;;12489813;28;20199;-81
2023/04/08 22:09:35;;;;;;;47.03;23.40;;;5.40;99.90;;;;;;12474943;28;20396;-81
2023/04/08 22:15:37;;;;;;;37.30;18.83;;;5.40;99.90;;;;;;12476682;28;20038;-80
2023/04/08 22:21:39;;;;;;;39.17;18.58;;;5.30;99.90;;;;;;12478404;28;20128;-81
2023/04/08 22:27:40;;;;;;;35.75;18.60;;;5.30;99.90;;;;;;12486883;28;20053;-81
2023/04/08 22:33:42;;;;;;;35.35;19.10;;;5.20;99.90;;;;;;12484667;28;20072;-82
2023/04/08 22:39:44;;;;;;;77.88;34.50;;;5.10;99.90;;;;;;12468416;28;20049;-81
2023/04/08 22:45:46;;;;;;;44.70;24.60;;;5.00;99.90;;;;;;12469166;28;20137;-81
2023/04/08 22:51:48;;;;;;;35.08;18.77;;;5.00;99.90;;;;;;12505259;28;20038;-81
2023/04/08 22:57:50;;;;;;;35.22;19.42;;;5.00;99.90;;;;;;12485546;28;20122;-81
2023/04/08 23:03:53;;;;;;;36.03;19.83;;;4.90;99.90;;;;;;12469664;28;20183;-81
2023/04/08 23:09:55;;;;;;;40.72;19.65;;;4.80;99.90;;;;;;12494540;28;20506;-82
2023/04/08 23:15:57;;;;;;;38.17;19.70;;;4.70;99.90;;;;;;12461424;28;20231;-81
2023/04/08 23:21:59;;;;;;;42.08;20.25;;;4.80;99.90;;;;;;12467923;28;20046;-83
2023/04/08 23:28:01;;;;;;;38.15;20.13;;;4.70;99.90;;;;;;12464395;28;20482;-81
2023/04/08 23:34:03;;;;;;;42.30;21.60;;;4.80;99.90;;;;;;12491498;28;20044;-82
2023/04/08 23:40:06;;;;;;;40.22;21.65;;;4.70;99.90;;;;;;12477131;28;20092;-81
2023/04/08 23:46:08;;;;;;;45.45;22.73;;;4.70;99.90;;;;;;12430567;28;20064;-80
2023/04/08 23:52:10;;;;;;;42.65;21.10;;;4.60;99.90;;;;;;12470470;28;20049;-81
2023/04/08 23:58:12;;;;;;;47.72;23.08;;;4.60;99.90;;;;;;12462475;28;20056;-81
